Carterton, Virginia
Current Conditions -  °F | °C
As of 10:55 AM on Thursday 30 Oct 2014 (Local Time) from KVJI Reporting Station
Broken Clouds Broken Clouds  
Wind Chill: 44°   Ceiling: 400
Heat Index: 44°   Visibility: 10mi
Dew Point: 44°   Wind: 3mph
Humidity: 100%   Direction: 140°SE
Pressure: 30.11"   Gusts: NA
Location:  36.85°N, 82.1249°W
Report Text: KVJI 301455Z AUTO 14003KT 10SM BKN004 07/07 A3011 RMK AO2 T00670067
Loading
Personal Weather Stations






























Interactive Weather Map
Tropical Storm Tracking
New forecast layout! Learn more

10-Day Weather Forecast

Advertisements
Track Severe Weather on mobile